sensor_id;sensor_type;location;lat;lon;timestamp;temperature;humidity
22416;DHT22;12204;50.600;4.608;2022-12-29T00:02:52;21.60;73.10
22416;DHT22;12204;50.600;4.608;2022-12-29T00:07:57;21.50;73.30
22416;DHT22;12204;50.600;4.608;2022-12-29T00:13:01;21.50;73.50
22416;DHT22;12204;50.600;4.608;2022-12-29T00:18:22;21.50;73.50
22416;DHT22;12204;50.600;4.608;2022-12-29T00:23:28;21.40;73.70
22416;DHT22;12204;50.600;4.608;2022-12-29T00:28:50;21.40;73.90
22416;DHT22;12204;50.600;4.608;2022-12-29T00:34:11;21.40;74.10
22416;DHT22;12204;50.600;4.608;2022-12-29T00:39:34;21.40;74.20
22416;DHT22;12204;50.600;4.608;2022-12-29T00:44:55;21.30;74.30
22416;DHT22;12204;50.600;4.608;2022-12-29T00:49:59;21.30;74.10
22416;DHT22;12204;50.600;4.608;2022-12-29T00:55:05;21.40;73.90
22416;DHT22;12204;50.600;4.608;2022-12-29T01:00:10;21.40;73.80
22416;DHT22;12204;50.600;4.608;2022-12-29T01:05:16;21.50;73.70
22416;DHT22;12204;50.600;4.608;2022-12-29T01:10:21;21.60;73.30
22416;DHT22;12204;50.600;4.608;2022-12-29T01:15:27;21.70;73.10
22416;DHT22;12204;50.600;4.608;2022-12-29T01:20:30;21.70;73.10
22416;DHT22;12204;50.600;4.608;2022-12-29T01:25:36;21.70;72.80
22416;DHT22;12204;50.600;4.608;2022-12-29T01:30:40;21.70;72.90
22416;DHT22;12204;50.600;4.608;2022-12-29T01:35:43;21.70;73.10
22416;DHT22;12204;50.600;4.608;2022-12-29T01:40:49;21.70;73.20
22416;DHT22;12204;50.600;4.608;2022-12-29T01:45:53;21.70;73.40
22416;DHT22;12204;50.600;4.608;2022-12-29T01:50:58;21.70;73.50
22416;DHT22;12204;50.600;4.608;2022-12-29T01:56:06;21.60;73.50
22416;DHT22;12204;50.600;4.608;2022-12-29T02:01:11;21.70;73.70
22416;DHT22;12204;50.600;4.608;2022-12-29T02:06:17;21.60;73.80
22416;DHT22;12204;50.600;4.608;2022-12-29T02:11:27;21.60;74.00
22416;DHT22;12204;50.600;4.608;2022-12-29T02:16:41;21.50;74.20
22416;DHT22;12204;50.600;4.608;2022-12-29T02:22:05;21.50;74.40
22416;DHT22;12204;50.600;4.608;2022-12-29T02:27:39;21.50;74.60
22416;DHT22;12204;50.600;4.608;2022-12-29T02:33:07;21.40;74.90
22416;DHT22;12204;50.600;4.608;2022-12-29T02:38:33;21.40;75.20
22416;DHT22;12204;50.600;4.608;2022-12-29T02:43:52;21.40;76.20
22416;DHT22;12204;50.600;4.608;2022-12-29T02:49:06;21.40;75.00
22416;DHT22;12204;50.600;4.608;2022-12-29T02:54:16;21.50;74.90
22416;DHT22;12204;50.600;4.608;2022-12-29T02:59:43;21.50;74.50
22416;DHT22;12204;50.600;4.608;2022-12-29T03:05:04;21.60;74.10
22416;DHT22;12204;50.600;4.608;2022-12-29T03:10:30;21.70;73.70
22416;DHT22;12204;50.600;4.608;2022-12-29T03:15:46;21.70;73.40
22416;DHT22;12204;50.600;4.608;2022-12-29T03:21:10;21.70;73.30
22416;DHT22;12204;50.600;4.608;2022-12-29T03:26:20;21.70;73.00
22416;DHT22;12204;50.600;4.608;2022-12-29T03:31:25;21.70;73.00
22416;DHT22;12204;50.600;4.608;2022-12-29T03:36:35;21.70;73.00
22416;DHT22;12204;50.600;4.608;2022-12-29T03:41:46;21.70;73.10
22416;DHT22;12204;50.600;4.608;2022-12-29T03:46:54;21.70;73.10
22416;DHT22;12204;50.600;4.608;2022-12-29T03:51:59;21.70;73.10
22416;DHT22;12204;50.600;4.608;2022-12-29T03:57:05;21.70;73.20
22416;DHT22;12204;50.600;4.608;2022-12-29T04:02:38;21.60;73.00
22416;DHT22;12204;50.600;4.608;2022-12-29T04:07:46;21.60;73.00
22416;DHT22;12204;50.600;4.608;2022-12-29T04:12:50;21.60;73.00
22416;DHT22;12204;50.600;4.608;2022-12-29T04:17:54;21.50;73.10
22416;DHT22;12204;50.600;4.608;2022-12-29T04:23:01;21.50;73.30
22416;DHT22;12204;50.600;4.608;2022-12-29T04:28:07;21.50;73.30
22416;DHT22;12204;50.600;4.608;2022-12-29T04:33:25;21.50;73.30
22416;DHT22;12204;50.600;4.608;2022-12-29T04:38:30;21.50;73.40
22416;DHT22;12204;50.600;4.608;2022-12-29T04:43:37;21.60;73.20
22416;DHT22;12204;50.600;4.608;2022-12-29T04:48:50;21.60;73.10
22416;DHT22;12204;50.600;4.608;2022-12-29T04:54:06;21.70;72.60
22416;DHT22;12204;50.600;4.608;2022-12-29T04:59:11;21.80;72.20
22416;DHT22;12204;50.600;4.608;2022-12-29T05:04:19;21.80;72.10
22416;DHT22;12204;50.600;4.608;2022-12-29T05:09:24;21.80;72.00
22416;DHT22;12204;50.600;4.608;2022-12-29T05:14:28;21.90;72.10
22416;DHT22;12204;50.600;4.608;2022-12-29T05:19:32;21.80;72.00
22416;DHT22;12204;50.600;4.608;2022-12-29T05:24:37;21.80;71.80
22416;DHT22;12204;50.600;4.608;2022-12-29T05:29:41;21.80;71.70
22416;DHT22;12204;50.600;4.608;2022-12-29T05:34:45;21.80;71.80
22416;DHT22;12204;50.600;4.608;2022-12-29T05:39:50;21.80;71.60
22416;DHT22;12204;50.600;4.608;2022-12-29T05:44:54;21.80;72.00
22416;DHT22;12204;50.600;4.608;2022-12-29T05:50:36;21.80;72.00
22416;DHT22;12204;50.600;4.608;2022-12-29T05:55:48;21.70;71.90
22416;DHT22;12204;50.600;4.608;2022-12-29T06:00:52;21.70;72.00
22416;DHT22;12204;50.600;4.608;2022-12-29T06:05:56;21.70;72.10
22416;DHT22;12204;50.600;4.608;2022-12-29T06:11:02;21.70;72.20
22416;DHT22;12204;50.600;4.608;2022-12-29T06:16:07;21.70;72.30
22416;DHT22;12204;50.600;4.608;2022-12-29T06:21:13;21.60;72.20
22416;DHT22;12204;50.600;4.608;2022-12-29T06:26:19;21.50;72.20
22416;DHT22;12204;50.600;4.608;2022-12-29T06:31:23;21.60;72.30
22416;DHT22;12204;50.600;4.608;2022-12-29T06:36:27;21.50;72.60
22416;DHT22;12204;50.600;4.608;2022-12-29T06:41:32;21.50;73.00
22416;DHT22;12204;50.600;4.608;2022-12-29T06:46:54;21.50;73.00
22416;DHT22;12204;50.600;4.608;2022-12-29T06:51:59;21.50;73.10
22416;DHT22;12204;50.600;4.608;2022-12-29T06:57:14;21.50;72.60
22416;DHT22;12204;50.600;4.608;2022-12-29T07:02:18;21.60;72.40
22416;DHT22;12204;50.600;4.608;2022-12-29T07:07:22;21.60;72.30
22416;DHT22;12204;50.600;4.608;2022-12-29T07:12:27;21.60;72.20
22416;DHT22;12204;50.600;4.608;2022-12-29T07:17:31;21.60;72.10
22416;DHT22;12204;50.600;4.608;2022-12-29T07:22:35;21.60;72.00
22416;DHT22;12204;50.600;4.608;2022-12-29T07:27:40;21.70;72.00
22416;DHT22;12204;50.600;4.608;2022-12-29T07:32:44;21.70;72.00
22416;DHT22;12204;50.600;4.608;2022-12-29T07:37:48;21.70;72.00
22416;DHT22;12204;50.600;4.608;2022-12-29T07:42:53;21.70;72.10
22416;DHT22;12204;50.600;4.608;2022-12-29T07:48:06;21.70;71.90
22416;DHT22;12204;50.600;4.608;2022-12-29T07:53:10;21.70;72.50
22416;DHT22;12204;50.600;4.608;2022-12-29T07:58:15;21.60;69.60
22416;DHT22;12204;50.600;4.608;2022-12-29T08:03:20;21.30;67.20
22416;DHT22;12204;50.600;4.608;2022-12-29T08:08:24;21.00;65.00
22416;DHT22;12204;50.600;4.608;2022-12-29T08:13:29;20.80;63.40
22416;DHT22;12204;50.600;4.608;2022-12-29T08:18:33;20.60;62.10
22416;DHT22;12204;50.600;4.608;2022-12-29T08:23:37;20.50;61.00
22416;DHT22;12204;50.600;4.608;2022-12-29T08:28:42;20.40;60.60
22416;DHT22;12204;50.600;4.608;2022-12-29T08:33:46;20.30;60.90
22416;DHT22;12204;50.600;4.608;2022-12-29T08:38:50;20.40;61.20
22416;DHT22;12204;50.600;4.608;2022-12-29T08:43:55;20.60;62.00
22416;DHT22;12204;50.600;4.608;2022-12-29T08:48:58;20.50;60.60
22416;DHT22;12204;50.600;4.608;2022-12-29T08:54:02;20.30;60.00
22416;DHT22;12204;50.600;4.608;2022-12-29T08:59:07;20.20;59.70
22416;DHT22;12204;50.600;4.608;2022-12-29T09:04:12;20.10;59.20
22416;DHT22;12204;50.600;4.608;2022-12-29T09:09:18;19.90;59.00
22416;DHT22;12204;50.600;4.608;2022-12-29T09:14:24;19.90;58.70
22416;DHT22;12204;50.600;4.608;2022-12-29T09:19:28;19.90;58.60
22416;DHT22;12204;50.600;4.608;2022-12-29T09:24:31;19.80;58.30
22416;DHT22;12204;50.600;4.608;2022-12-29T09:29:36;19.80;58.90
22416;DHT22;12204;50.600;4.608;2022-12-29T09:34:42;19.90;59.70
22416;DHT22;12204;50.600;4.608;2022-12-29T09:39:46;20.10;60.10
22416;DHT22;12204;50.600;4.608;2022-12-29T09:45:10;20.20;60.80
22416;DHT22;12204;50.600;4.608;2022-12-29T09:50:22;20.20;61.50
22416;DHT22;12204;50.600;4.608;2022-12-29T09:55:34;20.20;62.10
22416;DHT22;12204;50.600;4.608;2022-12-29T10:00:48;20.30;62.80
22416;DHT22;12204;50.600;4.608;2022-12-29T10:06:04;20.30;63.30
22416;DHT22;12204;50.600;4.608;2022-12-29T10:11:24;20.30;64.70
22416;DHT22;12204;50.600;4.608;2022-12-29T10:16:53;20.30;64.20
22416;DHT22;12204;50.600;4.608;2022-12-29T10:22:12;20.30;64.70
22416;DHT22;12204;50.600;4.608;2022-12-29T10:27:27;20.30;65.10
22416;DHT22;12204;50.600;4.608;2022-12-29T10:32:39;20.30;65.30
22416;DHT22;12204;50.600;4.608;2022-12-29T10:37:52;20.30;65.60
22416;DHT22;12204;50.600;4.608;2022-12-29T10:43:12;20.30;65.90
22416;DHT22;12204;50.600;4.608;2022-12-29T10:48:30;20.30;66.00
22416;DHT22;12204;50.600;4.608;2022-12-29T10:53:38;20.30;66.10
22416;DHT22;12204;50.600;4.608;2022-12-29T10:58:47;20.30;66.20
22416;DHT22;12204;50.600;4.608;2022-12-29T11:04:02;20.30;66.20
22416;DHT22;12204;50.600;4.608;2022-12-29T11:09:12;20.30;66.30
22416;DHT22;12204;50.600;4.608;2022-12-29T11:14:21;20.30;66.40
22416;DHT22;12204;50.600;4.608;2022-12-29T11:19:33;20.30;66.60
22416;DHT22;12204;50.600;4.608;2022-12-29T11:24:45;20.30;66.70
22416;DHT22;12204;50.600;4.608;2022-12-29T11:29:50;20.30;66.70
22416;DHT22;12204;50.600;4.608;2022-12-29T11:34:57;20.30;66.70
22416;DHT22;12204;50.600;4.608;2022-12-29T11:40:05;20.30;66.70
22416;DHT22;12204;50.600;4.608;2022-12-29T11:45:16;20.30;66.80
22416;DHT22;12204;50.600;4.608;2022-12-29T11:50:26;20.30;66.80
22416;DHT22;12204;50.600;4.608;2022-12-29T11:55:32;20.30;66.90
22416;DHT22;12204;50.600;4.608;2022-12-29T12:00:38;20.30;66.90
22416;DHT22;12204;50.600;4.608;2022-12-29T12:05:46;20.30;66.90
22416;DHT22;12204;50.600;4.608;2022-12-29T12:10:58;20.30;66.90
22416;DHT22;12204;50.600;4.608;2022-12-29T12:16:11;20.30;67.10
22416;DHT22;12204;50.600;4.608;2022-12-29T12:21:31;20.30;67.20
22416;DHT22;12204;50.600;4.608;2022-12-29T12:26:55;20.30;67.20
22416;DHT22;12204;50.600;4.608;2022-12-29T12:32:10;20.30;67.20
22416;DHT22;12204;50.600;4.608;2022-12-29T12:37:42;20.30;67.20
22416;DHT22;12204;50.600;4.608;2022-12-29T12:43:08;20.30;67.20
22416;DHT22;12204;50.600;4.608;2022-12-29T12:48:42;20.30;67.30
22416;DHT22;12204;50.600;4.608;2022-12-29T12:54:13;20.30;67.10
22416;DHT22;12204;50.600;4.608;2022-12-29T12:59:42;20.30;67.10
22416;DHT22;12204;50.600;4.608;2022-12-29T13:05:16;20.30;67.00
22416;DHT22;12204;50.600;4.608;2022-12-29T13:10:39;20.20;64.20
22416;DHT22;12204;50.600;4.608;2022-12-29T13:15:57;20.20;62.70
22416;DHT22;12204;50.600;4.608;2022-12-29T13:21:25;20.00;61.80
22416;DHT22;12204;50.600;4.608;2022-12-29T13:26:44;19.90;61.20
22416;DHT22;12204;50.600;4.608;2022-12-29T13:31:56;19.80;60.50
22416;DHT22;12204;50.600;4.608;2022-12-29T13:37:17;19.80;60.00
22416;DHT22;12204;50.600;4.608;2022-12-29T13:42:25;19.80;60.60
22416;DHT22;12204;50.600;4.608;2022-12-29T13:47:33;19.90;61.10
22416;DHT22;12204;50.600;4.608;2022-12-29T13:52:43;20.00;61.40
22416;DHT22;12204;50.600;4.608;2022-12-29T13:57:59;20.00;61.80
22416;DHT22;12204;50.600;4.608;2022-12-29T14:03:20;20.00;62.30
22416;DHT22;12204;50.600;4.608;2022-12-29T14:08:43;20.10;64.10
22416;DHT22;12204;50.600;4.608;2022-12-29T14:13:48;20.20;64.70
22416;DHT22;12204;50.600;4.608;2022-12-29T14:18:52;20.20;65.20
22416;DHT22;12204;50.600;4.608;2022-12-29T14:24:27;20.20;65.40
22416;DHT22;12204;50.600;4.608;2022-12-29T14:29:46;20.20;65.90
22416;DHT22;12204;50.600;4.608;2022-12-29T14:34:51;20.20;65.90
22416;DHT22;12204;50.600;4.608;2022-12-29T14:40:04;20.20;66.10
22416;DHT22;12204;50.600;4.608;2022-12-29T14:45:27;20.20;65.90
22416;DHT22;12204;50.600;4.608;2022-12-29T14:50:38;20.20;66.00
22416;DHT22;12204;50.600;4.608;2022-12-29T14:55:46;20.20;66.10
22416;DHT22;12204;50.600;4.608;2022-12-29T15:00:53;20.10;66.10
22416;DHT22;12204;50.600;4.608;2022-12-29T15:05:59;20.10;66.20
22416;DHT22;12204;50.600;4.608;2022-12-29T15:11:14;20.10;66.30
22416;DHT22;12204;50.600;4.608;2022-12-29T15:16:24;20.10;66.40
22416;DHT22;12204;50.600;4.608;2022-12-29T15:21:31;20.10;66.50
22416;DHT22;12204;50.600;4.608;2022-12-29T15:26:39;20.10;66.50
22416;DHT22;12204;50.600;4.608;2022-12-29T15:31:47;20.10;66.60
22416;DHT22;12204;50.600;4.608;2022-12-29T15:36:51;20.10;66.70
22416;DHT22;12204;50.600;4.608;2022-12-29T15:41:56;20.10;66.70
22416;DHT22;12204;50.600;4.608;2022-12-29T15:47:21;20.10;66.80
22416;DHT22;12204;50.600;4.608;2022-12-29T15:52:27;20.10;67.00
22416;DHT22;12204;50.600;4.608;2022-12-29T15:57:37;20.10;67.00
22416;DHT22;12204;50.600;4.608;2022-12-29T16:02:47;20.10;67.10
22416;DHT22;12204;50.600;4.608;2022-12-29T16:07:53;20.10;67.20
22416;DHT22;12204;50.600;4.608;2022-12-29T16:13:03;20.10;67.20
22416;DHT22;12204;50.600;4.608;2022-12-29T16:18:21;20.10;67.20
22416;DHT22;12204;50.600;4.608;2022-12-29T16:23:29;20.10;67.30
22416;DHT22;12204;50.600;4.608;2022-12-29T16:28:38;20.10;67.40
22416;DHT22;12204;50.600;4.608;2022-12-29T16:33:47;20.10;67.40
22416;DHT22;12204;50.600;4.608;2022-12-29T16:39:02;20.00;67.50
22416;DHT22;12204;50.600;4.608;2022-12-29T16:44:22;20.10;67.50
22416;DHT22;12204;50.600;4.608;2022-12-29T16:49:32;20.00;67.60
22416;DHT22;12204;50.600;4.608;2022-12-29T16:54:38;20.00;67.60
22416;DHT22;12204;50.600;4.608;2022-12-29T16:59:42;20.00;67.60
22416;DHT22;12204;50.600;4.608;2022-12-29T17:04:47;20.00;67.80
22416;DHT22;12204;50.600;4.608;2022-12-29T17:09:52;20.00;67.70
22416;DHT22;12204;50.600;4.608;2022-12-29T17:14:58;20.00;67.80
22416;DHT22;12204;50.600;4.608;2022-12-29T17:20:08;20.00;67.80
22416;DHT22;12204;50.600;4.608;2022-12-29T17:25:20;20.00;67.90
22416;DHT22;12204;50.600;4.608;2022-12-29T17:30:27;20.00;67.90
22416;DHT22;12204;50.600;4.608;2022-12-29T17:35:36;20.00;68.00
22416;DHT22;12204;50.600;4.608;2022-12-29T17:40:40;20.00;68.00
22416;DHT22;12204;50.600;4.608;2022-12-29T17:45:47;20.00;68.10
22416;DHT22;12204;50.600;4.608;2022-12-29T17:50:56;20.00;68.20
22416;DHT22;12204;50.600;4.608;2022-12-29T17:56:00;20.00;68.10
22416;DHT22;12204;50.600;4.608;2022-12-29T18:01:04;19.90;68.10
22416;DHT22;12204;50.600;4.608;2022-12-29T18:06:11;19.90;68.20
22416;DHT22;12204;50.600;4.608;2022-12-29T18:11:21;19.90;68.20
22416;DHT22;12204;50.600;4.608;2022-12-29T18:16:27;20.00;68.30
22416;DHT22;12204;50.600;4.608;2022-12-29T18:21:32;20.20;68.40
22416;DHT22;12204;50.600;4.608;2022-12-29T18:26:36;20.50;67.70
22416;DHT22;12204;50.600;4.608;2022-12-29T18:31:40;20.80;66.90
22416;DHT22;12204;50.600;4.608;2022-12-29T18:36:45;21.10;66.20
22416;DHT22;12204;50.600;4.608;2022-12-29T18:41:49;21.20;65.70
22416;DHT22;12204;50.600;4.608;2022-12-29T18:46:53;21.30;65.60
22416;DHT22;12204;50.600;4.608;2022-12-29T18:51:58;21.30;65.60
22416;DHT22;12204;50.600;4.608;2022-12-29T18:57:02;21.30;65.60
22416;DHT22;12204;50.600;4.608;2022-12-29T19:02:08;21.30;65.70
22416;DHT22;12204;50.600;4.608;2022-12-29T19:07:19;21.30;65.90
22416;DHT22;12204;50.600;4.608;2022-12-29T19:12:23;21.30;65.80
22416;DHT22;12204;50.600;4.608;2022-12-29T19:17:29;21.30;65.90
22416;DHT22;12204;50.600;4.608;2022-12-29T19:22:34;21.20;66.50
22416;DHT22;12204;50.600;4.608;2022-12-29T19:27:38;21.20;66.70
22416;DHT22;12204;50.600;4.608;2022-12-29T19:32:41;21.10;66.50
22416;DHT22;12204;50.600;4.608;2022-12-29T19:37:47;21.10;66.70
22416;DHT22;12204;50.600;4.608;2022-12-29T19:42:51;21.10;66.50
22416;DHT22;12204;50.600;4.608;2022-12-29T19:47:55;21.10;66.60
22416;DHT22;12204;50.600;4.608;2022-12-29T19:53:00;21.00;66.70
22416;DHT22;12204;50.600;4.608;2022-12-29T19:58:06;21.00;66.60
22416;DHT22;12204;50.600;4.608;2022-12-29T20:03:10;21.00;66.60
22416;DHT22;12204;50.600;4.608;2022-12-29T20:08:16;21.00;66.90
22416;DHT22;12204;50.600;4.608;2022-12-29T20:13:19;20.90;66.90
22416;DHT22;12204;50.600;4.608;2022-12-29T20:18:23;20.90;67.00
22416;DHT22;12204;50.600;4.608;2022-12-29T20:23:32;20.90;67.10
22416;DHT22;12204;50.600;4.608;2022-12-29T20:28:37;20.90;67.00
22416;DHT22;12204;50.600;4.608;2022-12-29T20:33:41;20.80;67.00
22416;DHT22;12204;50.600;4.608;2022-12-29T20:38:47;20.80;67.00
22416;DHT22;12204;50.600;4.608;2022-12-29T20:43:51;20.70;67.00
22416;DHT22;12204;50.600;4.608;2022-12-29T20:48:55;20.70;67.00
22416;DHT22;12204;50.600;4.608;2022-12-29T20:54:01;20.70;67.20
22416;DHT22;12204;50.600;4.608;2022-12-29T20:59:05;20.70;67.50
22416;DHT22;12204;50.600;4.608;2022-12-29T21:04:28;20.80;67.30
22416;DHT22;12204;50.600;4.608;2022-12-29T21:09:53;20.80;68.10
22416;DHT22;12204;50.600;4.608;2022-12-29T21:14:56;20.90;67.10
22416;DHT22;12204;50.600;4.608;2022-12-29T21:20:00;20.90;66.90
22416;DHT22;12204;50.600;4.608;2022-12-29T21:25:06;20.90;66.80
22416;DHT22;12204;50.600;4.608;2022-12-29T21:30:11;20.90;66.90
22416;DHT22;12204;50.600;4.608;2022-12-29T21:35:16;20.90;66.80
22416;DHT22;12204;50.600;4.608;2022-12-29T21:40:21;20.90;66.90
22416;DHT22;12204;50.600;4.608;2022-12-29T21:45:25;20.90;66.90
22416;DHT22;12204;50.600;4.608;2022-12-29T21:50:31;20.90;67.00
22416;DHT22;12204;50.600;4.608;2022-12-29T21:55:36;20.80;67.20
22416;DHT22;12204;50.600;4.608;2022-12-29T22:00:39;20.80;67.30
22416;DHT22;12204;50.600;4.608;2022-12-29T22:06:01;20.80;67.20
22416;DHT22;12204;50.600;4.608;2022-12-29T22:11:23;20.80;67.20
22416;DHT22;12204;50.600;4.608;2022-12-29T22:16:44;20.80;67.20
22416;DHT22;12204;50.600;4.608;2022-12-29T22:21:48;20.70;67.10
22416;DHT22;12204;50.600;4.608;2022-12-29T22:26:53;20.70;67.10
22416;DHT22;12204;50.600;4.608;2022-12-29T22:31:57;20.70;67.10
22416;DHT22;12204;50.600;4.608;2022-12-29T22:37:00;20.70;67.20
22416;DHT22;12204;50.600;4.608;2022-12-29T22:42:06;20.70;67.30
22416;DHT22;12204;50.600;4.608;2022-12-29T22:47:10;20.70;67.30
22416;DHT22;12204;50.600;4.608;2022-12-29T22:52:14;20.70;67.20
22416;DHT22;12204;50.600;4.608;2022-12-29T22:57:19;20.70;67.20
22416;DHT22;12204;50.600;4.608;2022-12-29T23:02:23;20.70;67.20
22416;DHT22;12204;50.600;4.608;2022-12-29T23:07:27;20.60;67.20
22416;DHT22;12204;50.600;4.608;2022-12-29T23:12:32;20.70;67.30
22416;DHT22;12204;50.600;4.608;2022-12-29T23:17:36;20.70;67.60
22416;DHT22;12204;50.600;4.608;2022-12-29T23:22:39;21.00;67.00
22416;DHT22;12204;50.600;4.608;2022-12-29T23:27:44;21.30;66.20
22416;DHT22;12204;50.600;4.608;2022-12-29T23:32:48;21.60;65.40
22416;DHT22;12204;50.600;4.608;2022-12-29T23:37:52;21.80;64.90
22416;DHT22;12204;50.600;4.608;2022-12-29T23:42:57;21.80;64.70
22416;DHT22;12204;50.600;4.608;2022-12-29T23:48:00;21.80;64.90
22416;DHT22;12204;50.600;4.608;2022-12-29T23:53:04;21.80;65.00
22416;DHT22;12204;50.600;4.608;2022-12-29T23:58:09;21.80;65.10
